createdAt,value
2023-01-05T00:03:16.612Z,9.03
2023-01-05T00:08:38.094Z,9.04
2023-01-05T00:14:18.048Z,9.05
2023-01-05T00:19:57.222Z,9.07
2023-01-05T00:25:27.388Z,9.09
2023-01-05T00:30:48.288Z,9.11
2023-01-05T00:36:10.567Z,9.10
2023-01-05T00:41:31.695Z,9.07
2023-01-05T00:46:52.413Z,9.04
2023-01-05T00:52:13.015Z,9.04
2023-01-05T00:57:34.112Z,9.00
2023-01-05T01:02:55.120Z,8.97
2023-01-05T01:08:16.657Z,8.92
2023-01-05T01:13:39.018Z,8.84
2023-01-05T01:19:04.981Z,8.76
2023-01-05T01:24:28.057Z,8.76
2023-01-05T01:29:48.872Z,8.76
2023-01-05T01:35:10.065Z,8.75
2023-01-05T01:40:31.101Z,8.76
2023-01-05T01:45:53.247Z,8.78
2023-01-05T01:51:23.519Z,8.80
2023-01-05T01:56:51.323Z,8.80
2023-01-05T02:02:13.977Z,8.79
2023-01-05T02:07:42.967Z,8.79
2023-01-05T02:13:29.485Z,8.82
2023-01-05T02:19:34.156Z,8.86
2023-01-05T02:25:13.182Z,8.85
2023-01-05T02:30:54.347Z,8.87
2023-01-05T02:36:28.309Z,8.88
2023-01-05T02:42:00.891Z,8.88
2023-01-05T02:47:24.737Z,8.84
2023-01-05T02:53:09.979Z,8.78
2023-01-05T02:58:52.987Z,8.74
2023-01-05T03:04:22.590Z,8.66
2023-01-05T03:09:45.142Z,8.58
2023-01-05T03:15:26.711Z,8.48
2023-01-05T03:20:51.379Z,8.49
2023-01-05T03:26:32.005Z,8.45
2023-01-05T03:32:31.612Z,8.49
2023-01-05T03:38:18.838Z,8.46
2023-01-05T03:43:42.786Z,8.47
2023-01-05T03:49:03.509Z,8.49
2023-01-05T03:54:24.316Z,8.53
2023-01-05T03:59:45.778Z,8.56
2023-01-05T04:05:08.209Z,8.53
2023-01-05T04:10:29.244Z,8.50
2023-01-05T04:15:52.944Z,8.45
2023-01-05T04:21:14.051Z,8.40
2023-01-05T04:26:34.665Z,8.36
2023-01-05T04:31:56.529Z,8.30
2023-01-05T04:37:17.750Z,8.28
2023-01-05T04:42:38.435Z,8.24
2023-01-05T04:48:00.283Z,8.22
2023-01-05T04:53:23.391Z,8.26
2023-01-05T04:58:44.575Z,8.29
2023-01-05T05:04:06.544Z,8.35
2023-01-05T05:09:27.109Z,8.30
2023-01-05T05:14:48.556Z,8.31
2023-01-05T05:20:10.015Z,8.32
2023-01-05T05:25:31.364Z,8.36
2023-01-05T05:30:52.692Z,8.35
2023-01-05T05:36:13.412Z,8.34
2023-01-05T05:41:34.007Z,8.35
2023-01-05T05:46:54.618Z,8.34
2023-01-05T05:52:15.389Z,8.35
2023-01-05T05:57:36.484Z,8.33
2023-01-05T06:02:58.770Z,8.32
2023-01-05T06:08:20.085Z,8.30
2023-01-05T06:13:41.265Z,8.27
2023-01-05T06:19:01.997Z,8.27
2023-01-05T06:24:22.832Z,8.24
2023-01-05T06:29:43.530Z,8.19
2023-01-05T06:35:04.383Z,8.18
2023-01-05T06:40:25.306Z,8.20
2023-01-05T06:45:46.217Z,8.19
2023-01-05T06:51:06.826Z,8.22
2023-01-05T06:56:27.386Z,8.16
2023-01-05T07:01:48.172Z,8.20
2023-01-05T07:07:13.074Z,8.18
2023-01-05T07:12:34.122Z,8.16
2023-01-05T07:17:54.692Z,8.14
2023-01-05T07:23:15.483Z,8.08
2023-01-05T07:28:37.919Z,8.09
2023-01-05T07:33:58.918Z,8.07
2023-01-05T07:39:19.633Z,8.07
2023-01-05T07:44:40.278Z,8.05
2023-01-05T07:50:01.931Z,8.01
2023-01-05T07:55:22.713Z,7.99
2023-01-05T08:00:43.350Z,7.98
2023-01-05T08:06:10.196Z,7.95
2023-01-05T08:11:31.608Z,7.92
2023-01-05T08:16:52.454Z,7.92
2023-01-05T08:22:13.405Z,7.92
2023-01-05T08:27:35.099Z,8.48
2023-01-05T08:32:55.758Z,8.38
2023-01-05T08:38:16.558Z,8.30
2023-01-05T08:43:37.247Z,8.19
2023-01-05T08:49:00.308Z,8.29
2023-01-05T08:54:21.281Z,8.32
2023-01-05T08:59:44.021Z,8.28
2023-01-05T09:05:05.203Z,8.35
2023-01-05T09:10:26.053Z,8.49
2023-01-05T09:15:46.873Z,8.61
2023-01-05T09:21:09.493Z,8.66
2023-01-05T09:26:30.304Z,8.64
2023-01-05T09:31:51.128Z,8.64
2023-01-05T09:37:11.747Z,8.66
2023-01-05T09:42:34.200Z,8.64
2023-01-05T09:47:57.750Z,8.59
2023-01-05T09:53:26.849Z,8.58
2023-01-05T09:58:47.922Z,8.54
2023-01-05T10:04:17.101Z,8.57
2023-01-05T10:09:40.137Z,8.59
2023-01-05T10:15:33.451Z,8.71
2023-01-05T10:20:56.822Z,8.87
2023-01-05T10:26:28.341Z,8.93
2023-01-05T10:32:05.346Z,8.90
2023-01-05T10:37:52.645Z,8.81
2023-01-05T10:43:41.419Z,8.87
2023-01-05T10:49:02.259Z,8.91
2023-01-05T10:54:41.562Z,8.94
2023-01-05T11:00:15.706Z,8.98
2023-01-05T11:05:39.757Z,8.98
2023-01-05T11:11:03.920Z,9.00
2023-01-05T11:16:33.892Z,9.03
2023-01-05T11:22:01.459Z,9.03
2023-01-05T11:27:24.995Z,9.07
2023-01-05T11:32:47.704Z,9.13
2023-01-05T11:38:22.651Z,9.23
2023-01-05T11:43:54.523Z,9.33
2023-01-05T11:49:19.638Z,9.37
2023-01-05T11:54:41.195Z,9.43
2023-01-05T12:00:02.662Z,9.39
2023-01-05T12:05:44.542Z,9.37
2023-01-05T12:11:14.257Z,9.39
2023-01-05T12:16:49.864Z,9.66
2023-01-05T12:22:32.149Z,9.68
2023-01-05T12:28:11.124Z,9.53
2023-01-05T12:34:03.604Z,9.45
2023-01-05T12:39:33.194Z,9.45
2023-01-05T12:44:59.836Z,9.49
2023-01-05T12:50:35.359Z,9.40
2023-01-05T12:55:59.917Z,9.33
2023-01-05T13:01:25.805Z,9.35
2023-01-05T13:06:53.343Z,9.36
2023-01-05T13:12:14.112Z,9.39
2023-01-05T13:17:38.358Z,9.28
2023-01-05T13:23:14.490Z,9.16
2023-01-05T13:28:35.663Z,9.20
2023-01-05T13:34:26.092Z,9.20
2023-01-05T13:39:59.210Z,9.24
2023-01-05T13:45:58.682Z,9.27
2023-01-05T13:51:40.933Z,9.17
2023-01-05T13:57:08.986Z,9.09
2023-01-05T14:02:40.052Z,8.95
2023-01-05T14:08:05.194Z,8.90
2023-01-05T14:13:47.298Z,8.86
2023-01-05T14:19:21.769Z,8.84
2023-01-05T14:24:48.209Z,8.79
2023-01-05T14:30:21.371Z,8.78
2023-01-05T14:35:44.426Z,8.76
2023-01-05T14:41:15.744Z,8.64
2023-01-05T14:46:51.630Z,8.52
2023-01-05T14:52:40.005Z,8.46
2023-01-05T14:58:11.673Z,8.42
2023-01-05T15:03:44.806Z,8.37
2023-01-05T15:09:23.956Z,8.35
2023-01-05T15:15:01.172Z,8.28
2023-01-05T15:20:40.437Z,8.45
2023-01-05T15:26:07.639Z,8.32
2023-01-05T15:31:49.104Z,8.22
2023-01-05T15:37:39.539Z,8.14
2023-01-05T15:43:03.941Z,8.11
2023-01-05T15:48:33.387Z,8.03
2023-01-05T15:53:57.676Z,8.00
2023-01-05T15:59:32.235Z,7.93
2023-01-05T16:05:30.403Z,7.84
2023-01-05T16:10:59.733Z,7.85
2023-01-05T16:16:51.222Z,7.84
2023-01-05T16:22:52.793Z,8.01
2023-01-05T16:28:18.855Z,7.91
2023-01-05T16:33:40.391Z,7.80
2023-01-05T16:39:21.870Z,7.70
2023-01-05T16:44:52.082Z,7.61
2023-01-05T16:50:21.889Z,7.61
2023-01-05T16:55:42.815Z,7.61
2023-01-05T17:01:10.410Z,7.61
2023-01-05T17:06:32.111Z,7.63
2023-01-05T17:11:53.172Z,7.61
2023-01-05T17:17:14.511Z,7.63
2023-01-05T17:22:35.792Z,7.64
2023-01-05T17:27:56.729Z,7.69
2023-01-05T17:33:18.076Z,8.00
2023-01-05T17:38:38.796Z,7.98
2023-01-05T17:43:59.755Z,7.90
2023-01-05T17:49:21.141Z,7.90
2023-01-05T17:54:43.812Z,7.89
2023-01-05T18:00:07.004Z,7.80
2023-01-05T18:05:28.851Z,7.75
2023-01-05T18:10:49.715Z,7.76
2023-01-05T18:16:12.784Z,7.82
2023-01-05T18:21:35.691Z,7.80
2023-01-05T18:26:56.251Z,7.81
2023-01-05T18:32:16.924Z,7.78
2023-01-05T18:37:39.183Z,7.75
2023-01-05T18:42:59.852Z,7.69
2023-01-05T18:48:20.507Z,7.72
2023-01-05T18:53:41.775Z,7.74
2023-01-05T18:59:02.470Z,7.75
2023-01-05T19:04:23.283Z,7.74
2023-01-05T19:09:43.899Z,7.76
2023-01-05T19:15:05.041Z,7.68
2023-01-05T19:20:26.214Z,7.63
2023-01-05T19:25:46.819Z,7.65
2023-01-05T19:31:13.028Z,7.62
2023-01-05T19:36:35.644Z,7.68
2023-01-05T19:41:56.600Z,7.65
2023-01-05T19:47:18.527Z,7.56
2023-01-05T19:52:40.151Z,7.54
2023-01-05T19:58:00.743Z,7.52
2023-01-05T20:03:22.595Z,7.48
2023-01-05T20:08:43.940Z,7.44
2023-01-05T20:14:14.209Z,7.47
2023-01-05T20:19:36.146Z,7.53
2023-01-05T20:24:57.032Z,7.52
2023-01-05T20:30:18.484Z,7.44
2023-01-05T20:35:40.889Z,7.48
2023-01-05T20:41:02.200Z,7.51
2023-01-05T20:46:26.305Z,7.53
2023-01-05T20:51:48.707Z,7.56
2023-01-05T20:57:09.744Z,7.60
2023-01-05T21:02:30.544Z,7.63
2023-01-05T21:07:51.179Z,7.59
2023-01-05T21:13:30.685Z,7.57
2023-01-05T21:18:53.574Z,7.51
2023-01-05T21:24:15.067Z,7.50
2023-01-05T21:29:36.187Z,7.52
2023-01-05T21:34:56.995Z,7.58
2023-01-05T21:40:17.918Z,7.55
2023-01-05T21:45:40.677Z,7.58
2023-01-05T21:51:31.376Z,7.57
2023-01-05T21:56:52.526Z,7.50
2023-01-05T22:02:14.559Z,7.33
2023-01-05T22:07:35.327Z,7.29
2023-01-05T22:12:55.981Z,7.19
2023-01-05T22:18:16.653Z,7.14
2023-01-05T22:23:37.741Z,7.14
2023-01-05T22:28:58.859Z,7.17
2023-01-05T22:34:19.848Z,7.22
2023-01-05T22:39:40.738Z,7.26
2023-01-05T22:45:01.493Z,7.24
2023-01-05T22:50:22.091Z,7.36
2023-01-05T22:55:44.628Z,7.40
2023-01-05T23:01:10.596Z,7.40
2023-01-05T23:06:31.925Z,7.40
2023-01-05T23:11:52.610Z,7.39
2023-01-05T23:17:13.215Z,7.28
2023-01-05T23:22:34.485Z,7.17
2023-01-05T23:27:55.139Z,7.11
2023-01-05T23:33:17.553Z,7.16
2023-01-05T23:38:39.173Z,7.10
2023-01-05T23:43:59.714Z,7.04
2023-01-05T23:49:20.524Z,6.98
2023-01-05T23:54:41.176Z,6.98
